Time;durP1;ratioP1;P1;durP2;ratioP2;P2;SDS_P1;SDS_P2;PMS_P1;PMS_P2;Temp;Humidity;BMP_temperature;BMP_pressure;BME280_temperature;BME280_humidity;BME280_pressure;Samples;Min_cycle;Max_cycle;Signal;HPM_P1;HPM_P2
2021/10/14 00:00:16;;;;;;;59.45;32.95;;;;;;;6.29;95.56;99615.64;4151392;84;21063;-82
2021/10/14 00:06:19;;;;;;;62.93;35.60;;;;;;;6.23;95.70;99620.47;4149804;84;21580;-81
2021/10/14 00:12:21;;;;;;;66.35;35.70;;;;;;;6.20;95.72;99621.13;4156160;84;21049;-83
2021/10/14 00:18:23;;;;;;;62.83;36.38;;;;;;;6.14;95.76;99624.38;4149744;84;21055;-81
2021/10/14 00:24:24;;;;;;;62.85;35.17;;;;;;;6.16;95.84;99618.05;4155912;84;21067;-81
2021/10/14 00:30:26;;;;;;;58.08;31.57;;;;;;;6.17;95.84;99616.36;4149198;84;21092;-82
2021/10/14 00:36:27;;;;;;;68.22;36.55;;;;;;;6.24;95.97;99623.99;4148841;84;21077;-81
2021/10/14 00:42:28;;;;;;;65.12;35.38;;;;;;;6.10;95.82;99618.83;4149784;84;21089;-81
2021/10/14 00:48:29;;;;;;;72.03;37.83;;;;;;;6.05;95.96;99621.73;4181782;83;21071;-82
2021/10/14 00:54:30;;;;;;;65.12;37.35;;;;;;;6.02;96.42;99622.95;4083791;85;21030;-81
2021/10/14 01:00:32;;;;;;;68.67;37.33;;;;;;;5.95;96.32;99619.97;4150845;84;21040;-81
2021/10/14 01:06:33;;;;;;;68.35;36.33;;;;;;;5.99;96.47;99623.61;4143037;84;21599;-81
2021/10/14 01:12:35;;;;;;;68.85;37.30;;;;;;;6.05;96.68;99625.80;4144798;84;21027;-81
2021/10/14 01:18:36;;;;;;;65.22;35.65;;;;;;;6.16;96.62;99628.92;4150437;84;21626;-81
2021/10/14 01:24:38;;;;;;;62.03;33.55;;;;;;;6.20;96.56;99622.49;4159368;84;21079;-81
2021/10/14 01:30:39;;;;;;;64.82;35.33;;;;;;;6.26;96.57;99621.75;4085539;85;21553;-82
2021/10/14 01:36:41;;;;;;;62.23;37.17;;;;;;;6.24;96.55;99628.88;4146842;84;22191;-83
2021/10/14 01:42:42;;;;;;;60.98;34.95;;;;;;;6.21;96.58;99632.27;4085022;85;21028;-82
2021/10/14 01:48:43;;;;;;;64.40;36.13;;;;;;;6.22;96.66;99629.77;4054256;86;21053;-81
2021/10/14 01:54:45;;;;;;;68.87;35.78;;;;;;;6.29;96.64;99641.48;4050154;86;21126;-82
2021/10/14 02:00:50;;;;;;;66.90;36.05;;;;;;;6.29;96.43;99641.48;4052662;86;21490;-81
2021/10/14 02:06:51;;;;;;;57.67;33.70;;;;;;;6.25;96.50;99649.49;4060184;86;21068;-81
2021/10/14 02:12:53;;;;;;;56.30;33.13;;;;;;;6.22;96.50;99653.42;4158798;82;38425;-82
2021/10/14 02:18:54;;;;;;;54.00;32.70;;;;;;;6.19;96.54;99655.45;4211069;83;21444;-82
2021/10/14 02:24:55;;;;;;;50.90;30.75;;;;;;;6.15;96.58;99651.23;4279422;81;21566;-82
2021/10/14 02:30:58;;;;;;;54.00;31.40;;;;;;;6.16;96.64;99654.20;4274992;82;21069;-81
2021/10/14 02:36:59;;;;;;;51.73;29.18;;;;;;;6.18;96.48;99651.15;4277298;82;21542;-82
2021/10/14 02:43:02;;;;;;;52.43;29.07;;;;;;;6.18;96.56;99658.75;4279023;81;21814;-81
2021/10/14 02:49:04;;;;;;;46.05;27.17;;;;;;;6.17;96.42;99666.66;4283355;82;21059;-82
2021/10/14 02:55:06;;;;;;;47.05;27.25;;;;;;;6.15;96.44;99668.89;4270579;81;21085;-81
2021/10/14 03:01:09;;;;;;;42.67;25.30;;;;;;;6.09;96.25;99672.16;4295014;81;21224;-82
2021/10/14 03:07:10;;;;;;;42.80;25.65;;;;;;;6.05;96.19;99665.77;4074613;86;21121;-81
2021/10/14 03:13:12;;;;;;;38.20;24.32;;;;;;;6.00;96.08;99673.55;4202722;83;21004;-82
2021/10/14 03:19:13;;;;;;;38.73;24.12;;;;;;;5.95;95.96;99676.45;4214330;83;21075;-82
2021/10/14 03:25:14;;;;;;;39.38;24.77;;;;;;;5.93;96.09;99682.80;4214572;83;21646;-82
2021/10/14 03:31:16;;;;;;;42.35;24.15;;;;;;;5.86;95.89;99681.14;4215755;83;21055;-81
2021/10/14 03:37:18;;;;;;;42.95;24.25;;;;;;;5.74;95.62;99682.92;4207026;83;21453;-81
2021/10/14 03:43:19;;;;;;;38.80;24.20;;;;;;;5.69;95.79;99693.97;4211453;83;21055;-82
2021/10/14 03:49:20;;;;;;;41.80;22.98;;;;;;;5.68;96.03;99699.17;4206876;83;21043;-84
2021/10/14 03:55:21;;;;;;;36.65;22.27;;;;;;;5.70;96.08;99702.38;4095485;83;43530;-82
2021/10/14 04:01:23;;;;;;;33.40;22.87;;;;;;;5.75;96.12;99703.52;3991661;87;21092;-81
2021/10/14 04:07:24;;;;;;;38.08;24.47;;;;;;;5.78;96.28;99700.19;4009290;87;21121;-81
2021/10/14 04:13:25;;;;;;;41.37;24.70;;;;;;;5.70;95.86;99705.09;4008997;86;21121;-80
2021/10/14 04:19:27;;;;;;;35.90;23.70;;;;;;;5.66;95.79;99707.65;4008468;87;21041;-82
2021/10/14 04:25:28;;;;;;;38.02;22.30;;;;;;;5.63;96.02;99715.09;4009944;87;21055;-81
2021/10/14 04:31:29;;;;;;;34.95;22.22;;;;;;;5.63;95.88;99726.51;4003546;87;21603;-81
2021/10/14 04:37:30;;;;;;;35.78;22.32;;;;;;;5.64;96.00;99733.52;4005291;87;21087;-80
2021/10/14 04:43:32;;;;;;;37.45;23.20;;;;;;;5.64;95.78;99736.23;4006719;87;21492;-81
2021/10/14 04:49:34;;;;;;;38.70;24.67;;;;;;;5.61;95.86;99745.03;4002319;87;21056;-84
2021/10/14 04:55:35;;;;;;;39.40;25.25;;;;;;;5.68;96.04;99748.87;4004830;86;21063;-81
2021/10/14 05:01:36;;;;;;;39.08;23.80;;;;;;;5.72;95.91;99755.80;4006655;87;21095;-81
2021/10/14 05:07:38;;;;;;;36.83;23.05;;;;;;;5.70;95.65;99754.76;4137710;85;21578;-81
2021/10/14 05:13:40;;;;;;;39.23;23.50;;;;;;;5.61;95.53;99762.69;4133399;84;21065;-81
2021/10/14 05:19:41;;;;;;;39.23;21.90;;;;;;;5.59;95.65;99763.02;4131562;85;21121;-81
2021/10/14 05:25:42;;;;;;;36.05;23.12;;;;;;;5.63;95.86;99766.70;4138954;84;21087;-81
2021/10/14 05:31:44;;;;;;;38.15;22.87;;;;;;;5.74;95.60;99763.88;4138707;84;21018;-81
2021/10/14 05:37:45;;;;;;;44.60;26.97;;;;;;;5.82;95.76;99772.59;4139909;85;21126;-81
2021/10/14 05:43:47;;;;;;;52.27;29.52;;;;;;;5.88;95.57;99777.27;4126972;85;21066;-81
2021/10/14 05:49:48;;;;;;;51.10;30.55;;;;;;;5.93;95.63;99784.70;4037902;86;21066;-82
2021/10/14 05:55:49;;;;;;;56.77;31.02;;;;;;;5.94;95.58;99778.13;4134199;85;21019;-82
2021/10/14 06:01:50;;;;;;;47.78;28.52;;;;;;;5.93;95.40;99783.34;4139915;84;21125;-81
2021/10/14 06:07:51;;;;;;;45.08;28.65;;;;;;;5.96;95.28;99797.64;4111852;85;21071;-81
2021/10/14 06:13:53;;;;;;;56.90;31.75;;;;;;;6.03;95.54;99797.92;4122022;84;21030;-82
2021/10/14 06:19:54;;;;;;;58.45;31.48;;;;;;;6.03;95.36;99802.00;4131805;84;21109;-81
2021/10/14 06:25:55;;;;;;;53.58;30.32;;;;;;;5.98;95.15;99802.75;4125368;84;21034;-81
2021/10/14 06:31:57;;;;;;;50.88;29.55;;;;;;;5.95;95.42;99803.40;4120573;84;21153;-82
2021/10/14 06:37:59;;;;;;;52.75;30.45;;;;;;;6.04;95.72;99801.45;4126664;84;21549;-80
2021/10/14 06:44:01;;;;;;;52.55;28.73;;;;;;;6.10;95.42;99800.95;4135685;84;21157;-81
2021/10/14 06:50:05;;;;;;;51.23;30.05;;;;;;;6.22;95.51;99806.48;4120823;84;21179;-81
2021/10/14 06:56:06;;;;;;;57.38;31.20;;;;;;;6.34;95.48;99810.66;4117583;84;21909;-82
2021/10/14 07:02:09;;;;;;;55.45;30.35;;;;;;;6.43;95.48;99809.27;4121332;84;21530;-81
2021/10/14 07:08:10;;;;;;;49.35;26.93;;;;;;;6.47;95.16;99810.20;4130920;85;21125;-81
2021/10/14 07:14:12;;;;;;;48.73;26.85;;;;;;;6.46;94.93;99801.81;4128739;84;21058;-81
2021/10/14 07:20:13;;;;;;;52.45;27.98;;;;;;;6.47;94.93;99809.42;4123941;84;21096;-82
2021/10/14 07:26:14;;;;;;;45.70;26.90;;;;;;;6.44;94.82;99810.08;4131391;84;21057;-81
2021/10/14 07:32:16;;;;;;;46.45;25.00;;;;;;;6.48;94.84;99815.08;4128213;84;21561;-81
2021/10/14 07:38:17;;;;;;;45.63;26.25;;;;;;;6.87;95.55;99805.97;4025417;87;21025;-81
2021/10/14 07:44:19;;;;;;;38.53;23.98;;;;;;;7.40;95.24;99811.47;4020771;87;21200;-81
2021/10/14 07:50:21;;;;;;;44.08;25.72;;;;;;;7.70;94.55;99808.87;4027650;86;21099;-81
2021/10/14 07:56:22;;;;;;;39.00;24.00;;;;;;;7.90;93.60;99806.64;4027439;86;21619;-81
2021/10/14 08:02:23;;;;;;;37.33;21.42;;;;;;;8.07;93.85;99798.82;4020154;86;21124;-81
2021/10/14 08:08:24;;;;;;;36.38;22.95;;;;;;;8.60;93.68;99797.28;3985729;88;21078;-81
2021/10/14 08:14:26;;;;;;;38.08;22.65;;;;;;;9.01;93.23;99794.27;3983465;88;21152;-81
2021/10/14 08:20:28;;;;;;;35.60;21.52;;;;;;;9.43;92.90;99794.69;3987507;88;21112;-81
2021/10/14 08:26:30;;;;;;;34.08;20.25;;;;;;;9.60;92.42;99786.77;3983323;87;21065;-83
2021/10/14 08:32:32;;;;;;;31.50;19.10;;;;;;;9.85;91.09;99785.50;3980265;88;21543;-81
2021/10/14 08:38:33;;;;;;;28.38;17.15;;;;;;;10.32;90.83;99784.39;3978832;88;21110;-80
2021/10/14 08:44:36;;;;;;;28.45;15.65;;;;;;;11.06;91.31;99780.06;3984971;87;21056;-82
2021/10/14 08:50:42;;;;;;;20.25;13.03;;;;;;;11.94;90.19;99783.21;3978560;88;21103;-81
2021/10/14 08:56:47;;;;;;;18.95;12.18;;;;;;;13.02;88.69;99777.89;3983324;88;21128;-81
2021/10/14 09:02:49;;;;;;;17.45;11.00;;;;;;;13.97;87.79;99772.92;3978860;87;21055;-81
2021/10/14 09:08:52;;;;;;;16.45;10.72;;;;;;;14.94;87.30;99773.34;3946492;89;21128;-81
2021/10/14 09:15:03;;;;;;;16.90;9.70;;;;;;;14.63;83.87;99776.07;4115978;85;21134;-80
2021/10/14 09:21:04;;;;;;;14.10;10.88;;;;;;;14.79;83.22;99772.45;4117196;84;21128;-81
2021/10/14 09:27:10;;;;;;;12.63;8.78;;;;;;;14.85;82.53;99775.05;4116146;85;21102;-80
2021/10/14 09:33:43;;;;;;;10.48;6.75;;;;;;;14.55;80.70;99771.68;4120869;84;21598;-81
2021/10/14 09:40:14;;;;;;;10.50;6.90;;;;;;;14.32;80.63;99773.86;4123880;85;21109;-81
2021/10/14 09:46:44;;;;;;;7.85;5.67;;;;;;;14.81;80.34;99770.69;4122626;85;21110;-81
2021/10/14 09:52:46;;;;;;;8.73;6.00;;;;;;;15.20;79.19;99770.31;4115298;85;21038;-81
2021/10/14 09:58:48;;;;;;;9.03;6.58;;;;;;;15.41;77.50;99764.94;4121009;85;21531;-80
2021/10/14 10:04:51;;;;;;;10.55;5.72;;;;;;;15.22;73.86;99760.47;4114885;85;21654;-81
2021/10/14 10:10:54;;;;;;;12.63;3.95;;;;;;;15.26;75.50;99764.05;4002326;87;21115;-82
2021/10/14 10:17:06;;;;;;;6.87;5.15;;;;;;;15.90;75.24;99765.64;3940031;88;21515;-84
2021/10/14 10:23:06;;;;;;;8.10;5.10;;;;;;;16.75;73.90;99762.55;4033693;86;21686;-82
2021/10/14 10:29:22;;;;;;;10.25;5.33;;;;;;;17.09;72.54;99749.03;3965067;88;21108;-81
2021/10/14 10:35:45;;;;;;;8.13;4.85;;;;;;;16.76;70.96;99747.53;3975665;88;21107;-81
2021/10/14 10:41:47;;;;;;;7.80;4.17;;;;;;;16.16;70.71;99730.78;3983727;88;21139;-82
2021/10/14 10:48:05;;;;;;;5.08;3.52;;;;;;;15.58;69.75;99735.23;3992059;88;21075;-82
2021/10/14 10:54:06;;;;;;;9.95;4.92;;;;;;;14.96;68.56;99719.96;3989277;86;21551;-82
2021/10/14 11:00:09;;;;;;;9.18;5.15;;;;;;;14.61;68.94;99715.03;3987629;88;21135;-83
2021/10/14 11:06:10;;;;;;;10.05;5.80;;;;;;;14.36;68.44;99699.53;3999934;87;21658;-81
2021/10/14 11:12:17;;;;;;;8.93;5.53;;;;;;;14.47;68.00;99693.52;4023678;87;21095;-82
2021/10/14 11:18:15;;;;;;;7.70;5.30;;;;;;;14.09;66.77;99690.05;4135788;84;21416;-81
2021/10/14 11:24:17;;;;;;;9.75;5.42;;;;;;;13.98;66.79;99682.89;4034080;86;21079;-82
2021/10/14 11:30:21;;;;;;;9.50;4.53;;;;;;;13.76;66.66;99678.37;4035479;86;21671;-81
2021/10/14 11:36:23;;;;;;;6.00;3.83;;;;;;;13.59;66.39;99667.38;4027564;86;21069;-81
2021/10/14 11:42:24;;;;;;;7.37;4.83;;;;;;;13.40;66.22;99666.81;4032815;86;21605;-81
2021/10/14 11:48:34;;;;;;;8.30;3.85;;;;;;;13.27;65.55;99655.86;4128124;85;21645;-81
2021/10/14 11:54:36;;;;;;;6.53;3.27;;;;;;;12.89;65.03;99661.08;4137683;84;21086;-81
2021/10/14 12:00:37;;;;;;;5.80;3.08;;;;;;;12.82;65.34;99658.27;4133095;84;21104;-81
2021/10/14 12:06:41;;;;;;;5.62;2.50;;;;;;;12.87;64.84;99662.63;4127162;84;21210;-82
2021/10/14 12:12:43;;;;;;;8.80;2.27;;;;;;;12.89;64.72;99654.22;4087994;84;21046;-80
2021/10/14 12:18:45;;;;;;;3.95;2.40;;;;;;;12.83;63.77;99657.66;4132195;85;21620;-80
2021/10/14 12:24:59;;;;;;;3.85;2.50;;;;;;;12.81;63.79;99664.13;4020871;86;21000;-82
2021/10/14 12:31:13;;;;;;;3.55;2.30;;;;;;;12.65;63.22;99654.11;4121394;85;21021;-82
2021/10/14 12:37:15;;;;;;;4.95;2.30;;;;;;;12.52;63.05;99648.66;4118263;85;21054;-81
2021/10/14 12:43:25;;;;;;;4.35;2.40;;;;;;;12.48;62.75;99649.77;4120014;84;21089;-81
2021/10/14 12:55:26;;;;;;;6.08;2.45;;;;;;;12.32;62.72;99629.33;4113991;84;21176;-80
2021/10/14 13:01:28;;;;;;;3.75;2.45;;;;;;;12.13;61.70;99628.66;4106290;84;21653;-80
2021/10/14 13:07:29;;;;;;;4.28;1.98;;;;;;;12.14;61.18;99624.17;4126828;84;21034;-81
2021/10/14 13:13:31;;;;;;;3.70;1.75;;;;;;;12.02;56.08;99612.05;4127368;84;21550;-80
2021/10/14 13:19:34;;;;;;;5.58;2.75;;;;;;;12.18;58.77;99599.53;4114353;84;21094;-81
2021/10/14 13:25:35;;;;;;;4.60;2.58;;;;;;;12.24;58.67;99601.59;4130446;84;21138;-79
2021/10/14 13:31:36;;;;;;;4.83;2.30;;;;;;;12.15;55.63;99591.45;4126330;85;21125;-80
2021/10/14 13:37:38;;;;;;;4.05;2.45;;;;;;;12.01;53.59;99579.50;4126970;83;21543;-80
2021/10/14 13:43:59;;;;;;;;;;;;;;;;;;;;;
2021/10/14 13:49:47;;;;;;;;;;;;;;;11.79;56.11;99567.98;4130599;85;21663;-80
2021/10/14 13:55:49;;;;;;;4.35;2.27;;;;;;;11.77;54.85;99568.36;4128151;85;20165;-80
2021/10/14 14:01:50;;;;;;;5.87;2.20;;;;;;;11.62;55.12;99566.50;4125324;84;21542;-80
2021/10/14 14:07:51;;;;;;;4.60;2.00;;;;;;;11.60;55.65;99561.99;4123066;84;21106;-81
2021/10/14 14:13:53;;;;;;;4.30;2.10;;;;;;;11.58;56.01;99565.67;4122549;84;21014;-81
2021/10/14 14:19:54;;;;;;;3.37;1.72;;;;;;;11.47;56.04;99563.34;4126054;84;21083;-81
2021/10/14 14:25:55;;;;;;;3.70;2.05;;;;;;;11.37;56.27;99559.83;4122652;84;21086;-81
2021/10/14 14:31:59;;;;;;;4.33;2.50;;;;;;;11.34;55.63;99546.86;4119837;84;21061;-82
2021/10/14 14:38:00;;;;;;;4.70;1.98;;;;;;;11.23;56.00;99552.73;4117263;84;21082;-81
2021/10/14 14:44:02;;;;;;;5.25;2.22;;;;;;;11.10;56.85;99554.09;4116881;84;21101;-80
2021/10/14 14:50:07;;;;;;;5.15;2.30;;;;;;;10.98;57.33;99546.02;4122499;84;21124;-81
2021/10/14 14:56:07;;;;;;;6.08;3.83;;;;;;;10.83;57.16;99553.78;4120892;84;21042;-80
2021/10/14 15:02:11;;;;;;;10.25;4.28;;;;;;;10.73;58.10;99555.73;4124845;85;21087;-81
2021/10/14 15:08:12;;;;;;;8.53;4.70;;;;;;;10.61;58.55;99552.59;4058821;84;21911;-81
2021/10/14 15:14:13;;;;;;;11.12;6.12;;;;;;;10.49;59.54;99551.34;4014526;87;21048;-81
2021/10/14 15:20:15;;;;;;;28.83;17.27;;;;;;;10.42;59.72;99558.63;4019483;87;21929;-80
2021/10/14 15:26:16;;;;;;;25.27;14.55;;;;;;;10.32;60.28;99546.31;4016040;87;21096;-81
2021/10/14 15:32:17;;;;;;;21.05;9.95;;;;;;;10.20;61.38;99542.34;4019703;85;21496;-80
2021/10/14 15:38:19;;;;;;;27.32;13.20;;;;;;;10.11;61.36;99551.91;4015385;87;21602;-82
2021/10/14 15:44:21;;;;;;;25.60;12.90;;;;;;;10.01;61.95;99558.70;4019429;87;21126;-81
2021/10/14 15:50:22;;;;;;;23.38;11.63;;;;;;;9.93;62.84;99553.45;4015897;87;21063;-80
2021/10/14 15:56:23;;;;;;;32.63;14.87;;;;;;;9.84;63.58;99552.83;4011907;87;21128;-82
2021/10/14 16:02:25;;;;;;;32.83;14.78;;;;;;;9.65;63.10;99553.58;4011496;87;21680;-80
2021/10/14 16:08:26;;;;;;;33.65;17.00;;;;;;;9.63;63.92;99549.06;4085063;85;21138;-81
2021/10/14 16:14:28;;;;;;;44.65;22.05;;;;;;;9.55;64.36;99548.08;4025306;87;21120;-81
2021/10/14 16:20:30;;;;;;;48.78;21.05;;;;;;;9.47;64.85;99555.88;4008105;86;21102;-80
2021/10/14 16:26:34;;;;;;;45.67;19.98;;;;;;;9.35;65.14;99546.42;4021779;86;21668;-81
2021/10/14 16:32:52;;;;;;;38.28;17.65;;;;;;;9.22;65.77;99549.61;4033752;86;21130;-81
2021/10/14 16:38:39;;;;;;;33.53;15.35;;;;;;;9.07;65.86;99551.73;4020255;86;21078;-80
2021/10/14 16:44:41;;;;;;;30.88;15.88;;;;;;;8.81;65.57;99549.52;4023371;86;21117;-81
2021/10/14 16:50:43;;;;;;;34.27;16.23;;;;;;;8.60;65.92;99558.48;4032532;87;21041;-80
2021/10/14 16:56:51;;;;;;;32.80;14.63;;;;;;;8.49;66.05;99560.13;4026842;86;21106;-80
2021/10/14 17:02:51;;;;;;;;;;;;;;;8.29;66.68;99561.11;3925189;86;10000161;-80
2021/10/14 17:08:55;;;;;;;37.48;18.10;;;;;;;8.23;67.82;99568.51;3995986;87;20153;-81
2021/10/14 17:14:56;;;;;;;56.58;28.92;;;;;;;8.08;67.46;99568.63;4009142;87;21099;-80
2021/10/14 17:21:11;;;;;;;37.58;20.40;;;;;;;7.92;67.79;99566.41;4010812;85;21690;-80
2021/10/14 17:39:44;;;;;;;41.77;21.50;;;;;;;7.59;69.25;99558.94;3988822;88;21034;-80
2021/10/14 17:51:48;;;;;;;35.38;17.92;;;;;;;7.48;69.77;99550.44;4021894;87;21053;-82
2021/10/14 17:57:51;;;;;;;39.85;21.90;;;;;;;7.31;69.36;99556.08;4119000;85;21071;-80
2021/10/14 18:03:59;;;;;;;36.17;19.30;;;;;;;7.28;70.44;99565.52;4121575;85;21074;-80
2021/10/14 18:35:07;;;;;;;55.50;29.45;;;;;;;7.05;73.42;99566.50;4109164;85;21635;-81
2021/10/14 18:41:01;;;;;;;63.73;30.17;;;;;;;7.05;73.55;99569.22;4008701;86;21030;-83
2021/10/14 18:47:03;;;;;;;68.60;32.25;;;;;;;7.09;73.81;99563.34;4027841;87;21059;-80
2021/10/14 18:53:06;;;;;;;60.83;30.32;;;;;;;7.07;73.36;99558.80;4038358;87;21151;-81
2021/10/14 18:59:16;;;;;;;55.85;29.65;;;;;;;6.86;73.31;99560.01;4030899;87;21004;-81
2021/10/14 19:05:35;;;;;;;59.47;28.30;;;;;;;6.88;74.54;99559.89;4025938;85;9999665;-80
2021/10/14 19:18:05;;;;;;;47.10;24.05;;;;;;;6.82;75.15;99562.59;3981767;85;22071;-81
2021/10/14 20:20:47;;;;;;;25.00;11.25;;;;;;;7.14;75.44;99524.98;4119299;84;21067;-80
2021/10/14 20:26:49;;;;;;;22.00;11.45;;;;;;;7.27;75.16;99526.59;4121550;84;21082;-80
2021/10/14 20:32:50;;;;;;;29.75;12.93;;;;;;;7.33;74.92;99527.95;4127676;84;21080;-80
2021/10/14 20:38:54;;;;;;;29.85;13.38;;;;;;;7.45;74.37;99529.89;4122259;84;21058;-80
2021/10/14 20:44:56;;;;;;;22.80;11.28;;;;;;;7.51;74.32;99528.52;4132548;84;21093;-80
2021/10/14 20:50:57;;;;;;;20.00;10.60;;;;;;;7.55;73.89;99521.23;4025469;86;21574;-80
2021/10/14 20:57:06;;;;;;;21.05;9.78;;;;;;;7.61;73.83;99514.45;4024433;86;21610;-80
2021/10/14 21:03:02;;;;;;;17.48;8.40;;;;;;;7.63;73.56;99521.69;4126885;84;21032;-80
2021/10/14 21:09:04;;;;;;;14.63;8.45;;;;;;;7.63;73.54;99521.13;4114930;84;21535;-80
2021/10/14 21:15:07;;;;;;;17.60;8.48;;;;;;;7.59;73.60;99510.70;4126698;85;21090;-80
2021/10/14 21:21:09;;;;;;;17.80;8.20;;;;;;;7.60;73.39;99509.55;4129408;84;21035;-83
2021/10/14 21:27:25;;;;;;;14.87;6.90;;;;;;;7.55;73.29;99509.78;4128638;85;21721;-80
2021/10/14 21:39:36;;;;;;;13.32;6.15;;;;;;;7.34;73.47;99505.05;4007704;86;21104;-81
2021/10/14 21:45:40;;;;;;;12.40;6.28;;;;;;;7.33;73.40;99504.02;4133905;83;21023;-80
2021/10/14 21:51:42;;;;;;;16.48;6.40;;;;;;;7.39;73.49;99513.55;4030207;86;21085;-80
2021/10/14 21:57:43;;;;;;;13.28;6.40;;;;;;;7.36;73.59;99512.28;4012385;87;21078;-81
2021/10/14 22:03:44;;;;;;;13.03;7.10;;;;;;;7.34;73.78;99507.77;3978469;88;21175;-80
2021/10/14 22:09:50;;;;;;;12.28;6.67;;;;;;;7.32;74.33;99503.22;4128789;85;21076;-80
2021/10/14 22:15:52;;;;;;;11.60;6.93;;;;;;;7.19;74.67;99507.63;4030564;86;21110;-81
2021/10/14 22:21:53;;;;;;;13.88;7.28;;;;;;;7.03;74.83;99502.06;4005315;87;21086;-81
2021/10/14 22:27:54;;;;;;;15.30;8.05;;;;;;;6.94;75.36;99491.85;3977302;87;21594;-81
2021/10/14 22:33:56;;;;;;;14.15;7.72;;;;;;;6.95;75.98;99496.73;4024863;86;22466;-81
2021/10/14 22:39:58;;;;;;;19.07;8.08;;;;;;;6.93;76.47;99497.63;4134930;84;21041;-81
2021/10/14 22:45:59;;;;;;;13.32;7.03;;;;;;;6.90;76.48;99492.87;4130090;84;21074;-81
2021/10/14 22:52:00;;;;;;;17.65;7.97;;;;;;;6.84;77.08;99489.59;4135296;85;21061;-81
2021/10/14 22:58:01;;;;;;;15.30;7.70;;;;;;;6.89;77.42;99485.27;4136229;84;21597;-81
2021/10/14 23:04:04;;;;;;;17.10;8.33;;;;;;;6.96;77.67;99486.88;4121344;85;21023;-83
2021/10/14 23:10:08;;;;;;;17.70;7.45;;;;;;;7.01;77.79;99483.13;4134662;85;21066;-81
2021/10/14 23:16:09;;;;;;;14.58;7.37;;;;;;;7.04;77.97;99472.36;4119974;85;21098;-81
2021/10/14 23:22:11;;;;;;;15.63;7.58;;;;;;;7.11;78.33;99469.08;4130090;84;21069;-81
2021/10/14 23:28:14;;;;;;;13.80;7.00;;;;;;;7.07;78.32;99472.23;4026963;86;21187;-81
2021/10/14 23:34:15;;;;;;;14.93;7.00;;;;;;;7.03;78.49;99461.23;4138081;85;21038;-81
2021/10/14 23:40:17;;;;;;;14.45;7.37;;;;;;;7.08;78.44;99462.95;4128276;85;21188;-81
2021/10/14 23:46:20;;;;;;;12.43;6.70;;;;;;;7.12;79.05;99462.49;4121470;85;21105;-81
2021/10/14 23:52:21;;;;;;;13.93;6.42;;;;;;;7.19;79.37;99462.70;4137127;84;21030;-80
2021/10/14 23:58:22;;;;;;;14.30;6.65;;;;;;;7.20;79.24;99465.67;4132099;84;21059;-82
